sensor_id;sensor_type;location;lat;lon;timestamp;temperature;humidity
25440;DHT22;13365;52.208;5.488;2023-02-11T00:03:45;12.20;96.60
25440;DHT22;13365;52.208;5.488;2023-02-11T00:06:11;12.10;96.70
25440;DHT22;13365;52.208;5.488;2023-02-11T00:08:37;12.10;96.80
25440;DHT22;13365;52.208;5.488;2023-02-11T00:11:03;12.00;96.80
25440;DHT22;13365;52.208;5.488;2023-02-11T00:13:29;12.10;97.00
25440;DHT22;13365;52.208;5.488;2023-02-11T00:15:56;12.20;96.80
25440;DHT22;13365;52.208;5.488;2023-02-11T00:18:22;12.00;96.60
25440;DHT22;13365;52.208;5.488;2023-02-11T00:20:47;12.00;96.80
25440;DHT22;13365;52.208;5.488;2023-02-11T00:23:13;12.00;96.90
25440;DHT22;13365;52.208;5.488;2023-02-11T00:25:43;11.80;97.10
25440;DHT22;13365;52.208;5.488;2023-02-11T00:28:10;12.00;97.10
25440;DHT22;13365;52.208;5.488;2023-02-11T00:30:36;11.60;97.50
25440;DHT22;13365;52.208;5.488;2023-02-11T00:33:01;11.60;98.00
25440;DHT22;13365;52.208;5.488;2023-02-11T00:35:27;11.40;98.20
25440;DHT22;13365;52.208;5.488;2023-02-11T00:37:54;11.50;98.50
25440;DHT22;13365;52.208;5.488;2023-02-11T00:40:20;11.70;98.30
25440;DHT22;13365;52.208;5.488;2023-02-11T00:42:45;11.80;98.00
25440;DHT22;13365;52.208;5.488;2023-02-11T00:45:11;11.70;97.90
25440;DHT22;13365;52.208;5.488;2023-02-11T00:47:36;11.70;97.80
25440;DHT22;13365;52.208;5.488;2023-02-11T00:50:03;11.70;98.10
25440;DHT22;13365;52.208;5.488;2023-02-11T00:52:30;11.70;98.00
25440;DHT22;13365;52.208;5.488;2023-02-11T00:54:56;11.80;97.80
25440;DHT22;13365;52.208;5.488;2023-02-11T00:57:21;11.60;98.00
25440;DHT22;13365;52.208;5.488;2023-02-11T00:59:47;11.80;98.30
25440;DHT22;13365;52.208;5.488;2023-02-11T01:02:13;11.90;97.80
25440;DHT22;13365;52.208;5.488;2023-02-11T01:04:38;12.10;97.20
25440;DHT22;13365;52.208;5.488;2023-02-11T01:07:04;12.30;97.00
25440;DHT22;13365;52.208;5.488;2023-02-11T01:09:29;12.50;96.70
25440;DHT22;13365;52.208;5.488;2023-02-11T01:11:55;12.70;96.00
25440;DHT22;13365;52.208;5.488;2023-02-11T01:14:21;12.60;95.70
25440;DHT22;13365;52.208;5.488;2023-02-11T01:16:46;12.50;95.70
25440;DHT22;13365;52.208;5.488;2023-02-11T01:19:12;12.40;95.80
25440;DHT22;13365;52.208;5.488;2023-02-11T01:21:37;12.00;96.20
25440;DHT22;13365;52.208;5.488;2023-02-11T01:24:03;12.00;96.30
25440;DHT22;13365;52.208;5.488;2023-02-11T01:26:28;12.00;96.60
25440;DHT22;13365;52.208;5.488;2023-02-11T01:28:54;12.20;96.70
25440;DHT22;13365;52.208;5.488;2023-02-11T01:31:19;12.10;96.40
25440;DHT22;13365;52.208;5.488;2023-02-11T01:33:45;12.00;96.80
25440;DHT22;13365;52.208;5.488;2023-02-11T01:36:11;11.80;97.30
25440;DHT22;13365;52.208;5.488;2023-02-11T01:38:36;11.80;97.30
25440;DHT22;13365;52.208;5.488;2023-02-11T01:41:07;11.90;97.60
25440;DHT22;13365;52.208;5.488;2023-02-11T01:43:37;11.90;97.50
25440;DHT22;13365;52.208;5.488;2023-02-11T01:48:51;12.00;97.50
25440;DHT22;13365;52.208;5.488;2023-02-11T01:51:38;12.10;97.20
25440;DHT22;13365;52.208;5.488;2023-02-11T01:54:09;12.10;97.60
25440;DHT22;13365;52.208;5.488;2023-02-11T01:56:55;12.10;97.10
25440;DHT22;13365;52.208;5.488;2023-02-11T02:02:49;12.50;96.70
25440;DHT22;13365;52.208;5.488;2023-02-11T02:05:35;12.50;96.70
25440;DHT22;13365;52.208;5.488;2023-02-11T02:08:27;12.60;96.50
25440;DHT22;13365;52.208;5.488;2023-02-11T02:10:56;12.50;96.80
25440;DHT22;13365;52.208;5.488;2023-02-11T02:13:29;12.50;96.30
25440;DHT22;13365;52.208;5.488;2023-02-11T02:15:58;12.80;96.40
25440;DHT22;13365;52.208;5.488;2023-02-11T02:35:47;12.90;95.50
25440;DHT22;13365;52.208;5.488;2023-02-11T02:38:29;12.70;95.60
25440;DHT22;13365;52.208;5.488;2023-02-11T02:41:00;13.00;95.70
25440;DHT22;13365;52.208;5.488;2023-02-11T02:43:28;12.90;95.50
25440;DHT22;13365;52.208;5.488;2023-02-11T02:45:54;12.80;95.60
25440;DHT22;13365;52.208;5.488;2023-02-11T02:48:28;13.00;95.50
25440;DHT22;13365;52.208;5.488;2023-02-11T02:51:04;12.90;95.40
25440;DHT22;13365;52.208;5.488;2023-02-11T02:54:11;12.70;95.40
25440;DHT22;13365;52.208;5.488;2023-02-11T02:57:11;12.60;96.00
25440;DHT22;13365;52.208;5.488;2023-02-11T03:00:27;12.50;96.30
25440;DHT22;13365;52.208;5.488;2023-02-11T03:08:58;12.70;95.80
25440;DHT22;13365;52.208;5.488;2023-02-11T03:11:25;12.80;95.60
25440;DHT22;13365;52.208;5.488;2023-02-11T03:13:53;12.50;95.80
25440;DHT22;13365;52.208;5.488;2023-02-11T03:16:25;12.70;95.80
25440;DHT22;13365;52.208;5.488;2023-02-11T03:18:56;12.70;95.80
25440;DHT22;13365;52.208;5.488;2023-02-11T03:21:23;12.70;95.70
25440;DHT22;13365;52.208;5.488;2023-02-11T03:23:52;12.60;95.40
25440;DHT22;13365;52.208;5.488;2023-02-11T03:26:39;12.40;95.60
25440;DHT22;13365;52.208;5.488;2023-02-11T03:32:06;12.20;96.20
25440;DHT22;13365;52.208;5.488;2023-02-11T03:39:49;12.10;96.90
25440;DHT22;13365;52.208;5.488;2023-02-11T03:42:16;12.20;96.70
25440;DHT22;13365;52.208;5.488;2023-02-11T03:44:51;12.10;96.60
25440;DHT22;13365;52.208;5.488;2023-02-11T03:47:20;12.00;96.60
25440;DHT22;13365;52.208;5.488;2023-02-11T03:49:48;12.00;97.10
25440;DHT22;13365;52.208;5.488;2023-02-11T03:52:17;11.90;96.90
25440;DHT22;13365;52.208;5.488;2023-02-11T03:54:45;12.00;97.20
25440;DHT22;13365;52.208;5.488;2023-02-11T03:57:12;11.80;97.20
25440;DHT22;13365;52.208;5.488;2023-02-11T03:59:55;11.50;98.40
25440;DHT22;13365;52.208;5.488;2023-02-11T04:02:24;11.80;98.20
25440;DHT22;13365;52.208;5.488;2023-02-11T04:04:50;11.40;98.40
25440;DHT22;13365;52.208;5.488;2023-02-11T04:07:16;11.40;98.90
25440;DHT22;13365;52.208;5.488;2023-02-11T04:09:41;11.10;99.20
25440;DHT22;13365;52.208;5.488;2023-02-11T04:12:07;10.90;99.90
25440;DHT22;13365;52.208;5.488;2023-02-11T04:14:32;11.10;99.90
25440;DHT22;13365;52.208;5.488;2023-02-11T04:16:58;11.30;99.90
25440;DHT22;13365;52.208;5.488;2023-02-11T04:19:23;11.30;99.80
25440;DHT22;13365;52.208;5.488;2023-02-11T04:21:49;11.40;99.90
25440;DHT22;13365;52.208;5.488;2023-02-11T04:24:14;11.50;99.80
25440;DHT22;13365;52.208;5.488;2023-02-11T04:26:40;11.60;99.20
25440;DHT22;13365;52.208;5.488;2023-02-11T04:29:05;11.70;99.20
25440;DHT22;13365;52.208;5.488;2023-02-11T04:31:31;11.90;98.90
25440;DHT22;13365;52.208;5.488;2023-02-11T04:33:57;11.90;98.50
25440;DHT22;13365;52.208;5.488;2023-02-11T04:36:22;11.90;98.70
25440;DHT22;13365;52.208;5.488;2023-02-11T04:38:48;11.90;98.30
25440;DHT22;13365;52.208;5.488;2023-02-11T04:41:13;11.60;99.10
25440;DHT22;13365;52.208;5.488;2023-02-11T04:43:39;11.50;99.50
25440;DHT22;13365;52.208;5.488;2023-02-11T04:46:04;11.70;99.40
25440;DHT22;13365;52.208;5.488;2023-02-11T04:48:30;11.60;99.20
25440;DHT22;13365;52.208;5.488;2023-02-11T04:50:55;11.70;99.10
25440;DHT22;13365;52.208;5.488;2023-02-11T04:53:21;11.70;99.30
25440;DHT22;13365;52.208;5.488;2023-02-11T04:55:50;11.90;98.80
25440;DHT22;13365;52.208;5.488;2023-02-11T04:58:17;11.90;98.90
25440;DHT22;13365;52.208;5.488;2023-02-11T05:00:43;12.00;98.50
25440;DHT22;13365;52.208;5.488;2023-02-11T05:03:09;11.60;99.10
25440;DHT22;13365;52.208;5.488;2023-02-11T05:05:37;11.80;99.50
25440;DHT22;13365;52.208;5.488;2023-02-11T05:08:04;11.70;99.40
25440;DHT22;13365;52.208;5.488;2023-02-11T05:10:29;11.70;99.50
25440;DHT22;13365;52.208;5.488;2023-02-11T05:12:55;11.30;99.90
25440;DHT22;13365;52.208;5.488;2023-02-11T05:15:21;11.30;99.90
25440;DHT22;13365;52.208;5.488;2023-02-11T05:17:46;11.20;99.90
25440;DHT22;13365;52.208;5.488;2023-02-11T05:20:11;11.10;99.90
25440;DHT22;13365;52.208;5.488;2023-02-11T05:22:37;11.30;99.90
25440;DHT22;13365;52.208;5.488;2023-02-11T05:25:03;11.30;99.90
25440;DHT22;13365;52.208;5.488;2023-02-11T05:27:28;11.20;99.90
25440;DHT22;13365;52.208;5.488;2023-02-11T05:29:54;11.10;99.90
25440;DHT22;13365;52.208;5.488;2023-02-11T05:32:20;11.00;99.90
25440;DHT22;13365;52.208;5.488;2023-02-11T05:34:46;10.80;99.90
25440;DHT22;13365;52.208;5.488;2023-02-11T05:37:12;10.80;99.90
25440;DHT22;13365;52.208;5.488;2023-02-11T05:39:38;10.70;99.90
25440;DHT22;13365;52.208;5.488;2023-02-11T05:42:03;10.80;99.90
25440;DHT22;13365;52.208;5.488;2023-02-11T05:44:29;10.60;99.90
25440;DHT22;13365;52.208;5.488;2023-02-11T05:46:54;10.60;99.90
25440;DHT22;13365;52.208;5.488;2023-02-11T05:49:20;10.80;99.90
25440;DHT22;13365;52.208;5.488;2023-02-11T05:51:46;10.90;99.90
25440;DHT22;13365;52.208;5.488;2023-02-11T05:54:11;10.60;99.90
25440;DHT22;13365;52.208;5.488;2023-02-11T05:56:37;10.60;99.90
25440;DHT22;13365;52.208;5.488;2023-02-11T05:59:02;10.20;99.90
25440;DHT22;13365;52.208;5.488;2023-02-11T06:01:28;10.10;99.90
25440;DHT22;13365;52.208;5.488;2023-02-11T06:03:53;10.20;99.90
25440;DHT22;13365;52.208;5.488;2023-02-11T06:06:19;10.10;99.90
25440;DHT22;13365;52.208;5.488;2023-02-11T06:08:45;10.20;99.90
25440;DHT22;13365;52.208;5.488;2023-02-11T06:11:12;10.20;99.90
25440;DHT22;13365;52.208;5.488;2023-02-11T06:13:38;10.30;99.90
25440;DHT22;13365;52.208;5.488;2023-02-11T06:16:04;10.60;99.90
25440;DHT22;13365;52.208;5.488;2023-02-11T06:18:29;10.70;99.90
25440;DHT22;13365;52.208;5.488;2023-02-11T06:20:55;10.70;99.90
25440;DHT22;13365;52.208;5.488;2023-02-11T06:23:21;10.30;99.90
25440;DHT22;13365;52.208;5.488;2023-02-11T06:25:47;10.50;99.90
25440;DHT22;13365;52.208;5.488;2023-02-11T06:28:12;10.60;99.90
25440;DHT22;13365;52.208;5.488;2023-02-11T06:30:38;10.70;99.90
25440;DHT22;13365;52.208;5.488;2023-02-11T06:33:03;10.40;99.90
25440;DHT22;13365;52.208;5.488;2023-02-11T06:35:29;10.70;99.90
25440;DHT22;13365;52.208;5.488;2023-02-11T06:37:55;10.40;99.90
25440;DHT22;13365;52.208;5.488;2023-02-11T06:40:20;10.20;99.90
25440;DHT22;13365;52.208;5.488;2023-02-11T06:42:46;10.50;99.90
25440;DHT22;13365;52.208;5.488;2023-02-11T06:45:12;10.40;99.90
25440;DHT22;13365;52.208;5.488;2023-02-11T06:47:38;10.60;99.90
25440;DHT22;13365;52.208;5.488;2023-02-11T06:50:05;10.70;99.90
25440;DHT22;13365;52.208;5.488;2023-02-11T06:52:32;10.50;99.90
25440;DHT22;13365;52.208;5.488;2023-02-11T06:54:58;10.40;99.90
25440;DHT22;13365;52.208;5.488;2023-02-11T06:57:24;10.50;99.90
25440;DHT22;13365;52.208;5.488;2023-02-11T06:59:50;10.40;99.90
25440;DHT22;13365;52.208;5.488;2023-02-11T07:02:15;10.20;99.90
25440;DHT22;13365;52.208;5.488;2023-02-11T07:04:41;10.00;99.90
25440;DHT22;13365;52.208;5.488;2023-02-11T07:07:06;9.90;99.90
25440;DHT22;13365;52.208;5.488;2023-02-11T07:09:32;10.00;99.90
25440;DHT22;13365;52.208;5.488;2023-02-11T07:11:57;10.10;99.90
25440;DHT22;13365;52.208;5.488;2023-02-11T07:14:23;10.30;99.90
25440;DHT22;13365;52.208;5.488;2023-02-11T07:16:49;10.70;99.90
25440;DHT22;13365;52.208;5.488;2023-02-11T07:19:14;10.50;99.90
25440;DHT22;13365;52.208;5.488;2023-02-11T07:21:40;10.60;99.90
25440;DHT22;13365;52.208;5.488;2023-02-11T07:24:07;10.50;99.90
25440;DHT22;13365;52.208;5.488;2023-02-11T07:26:33;10.50;99.90
25440;DHT22;13365;52.208;5.488;2023-02-11T07:28:58;10.50;99.90
25440;DHT22;13365;52.208;5.488;2023-02-11T07:31:26;10.30;99.90
25440;DHT22;13365;52.208;5.488;2023-02-11T07:33:54;10.40;99.90
25440;DHT22;13365;52.208;5.488;2023-02-11T07:36:21;10.70;99.90
25440;DHT22;13365;52.208;5.488;2023-02-11T07:38:47;10.60;99.90
25440;DHT22;13365;52.208;5.488;2023-02-11T07:41:15;10.60;99.90
25440;DHT22;13365;52.208;5.488;2023-02-11T07:43:41;10.50;99.90
25440;DHT22;13365;52.208;5.488;2023-02-11T07:46:13;10.50;99.90
25440;DHT22;13365;52.208;5.488;2023-02-11T07:48:39;10.50;99.90
25440;DHT22;13365;52.208;5.488;2023-02-11T07:51:17;10.80;99.90
25440;DHT22;13365;52.208;5.488;2023-02-11T07:53:43;10.80;99.90
25440;DHT22;13365;52.208;5.488;2023-02-11T07:56:10;10.60;99.90
25440;DHT22;13365;52.208;5.488;2023-02-11T07:58:36;10.80;99.90
25440;DHT22;13365;52.208;5.488;2023-02-11T08:01:04;10.80;99.90
25440;DHT22;13365;52.208;5.488;2023-02-11T08:03:31;10.60;99.90
25440;DHT22;13365;52.208;5.488;2023-02-11T08:05:56;10.80;99.90
25440;DHT22;13365;52.208;5.488;2023-02-11T08:08:25;10.80;99.90
25440;DHT22;13365;52.208;5.488;2023-02-11T08:10:51;10.90;99.90
25440;DHT22;13365;52.208;5.488;2023-02-11T08:13:16;10.80;99.90
25440;DHT22;13365;52.208;5.488;2023-02-11T08:15:42;10.80;99.90
25440;DHT22;13365;52.208;5.488;2023-02-11T08:18:08;10.70;99.90
25440;DHT22;13365;52.208;5.488;2023-02-11T08:20:33;10.80;99.90
25440;DHT22;13365;52.208;5.488;2023-02-11T08:22:59;11.00;99.90
25440;DHT22;13365;52.208;5.488;2023-02-11T08:25:24;11.10;99.90
25440;DHT22;13365;52.208;5.488;2023-02-11T08:27:50;11.30;99.90
25440;DHT22;13365;52.208;5.488;2023-02-11T08:30:15;11.50;99.90
25440;DHT22;13365;52.208;5.488;2023-02-11T08:32:41;11.40;99.90
25440;DHT22;13365;52.208;5.488;2023-02-11T08:35:06;11.20;99.90
25440;DHT22;13365;52.208;5.488;2023-02-11T08:37:32;11.40;99.90
25440;DHT22;13365;52.208;5.488;2023-02-11T08:39:58;11.30;99.90
25440;DHT22;13365;52.208;5.488;2023-02-11T08:42:24;11.50;99.90
25440;DHT22;13365;52.208;5.488;2023-02-11T08:44:49;11.30;99.90
25440;DHT22;13365;52.208;5.488;2023-02-11T08:47:15;11.30;99.90
25440;DHT22;13365;52.208;5.488;2023-02-11T08:49:40;11.20;99.90
25440;DHT22;13365;52.208;5.488;2023-02-11T08:52:07;11.30;99.90
25440;DHT22;13365;52.208;5.488;2023-02-11T08:54:32;11.30;99.90
25440;DHT22;13365;52.208;5.488;2023-02-11T08:56:58;11.30;99.90
25440;DHT22;13365;52.208;5.488;2023-02-11T08:59:26;11.40;99.90
25440;DHT22;13365;52.208;5.488;2023-02-11T09:01:51;11.60;99.90
25440;DHT22;13365;52.208;5.488;2023-02-11T09:04:17;11.60;99.90
25440;DHT22;13365;52.208;5.488;2023-02-11T09:06:42;11.50;99.90
25440;DHT22;13365;52.208;5.488;2023-02-11T09:09:10;11.70;99.90
25440;DHT22;13365;52.208;5.488;2023-02-11T09:11:38;11.50;99.90
25440;DHT22;13365;52.208;5.488;2023-02-11T09:14:05;11.40;99.90
25440;DHT22;13365;52.208;5.488;2023-02-11T09:16:33;11.50;99.90
25440;DHT22;13365;52.208;5.488;2023-02-11T09:19:00;11.30;99.90
25440;DHT22;13365;52.208;5.488;2023-02-11T09:21:27;11.30;99.90
25440;DHT22;13365;52.208;5.488;2023-02-11T09:23:53;11.60;99.90
25440;DHT22;13365;52.208;5.488;2023-02-11T09:26:23;11.70;99.90
25440;DHT22;13365;52.208;5.488;2023-02-11T09:28:50;11.60;99.90
25440;DHT22;13365;52.208;5.488;2023-02-11T09:31:24;11.80;99.90
25440;DHT22;13365;52.208;5.488;2023-02-11T09:33:52;11.70;99.90
25440;DHT22;13365;52.208;5.488;2023-02-11T09:36:20;12.00;99.90
25440;DHT22;13365;52.208;5.488;2023-02-11T09:38:46;11.90;99.90
25440;DHT22;13365;52.208;5.488;2023-02-11T09:44:20;12.10;99.90
25440;DHT22;13365;52.208;5.488;2023-02-11T09:46:53;12.10;99.90
25440;DHT22;13365;52.208;5.488;2023-02-11T09:49:23;12.00;99.90
25440;DHT22;13365;52.208;5.488;2023-02-11T09:52:18;12.00;99.90
25440;DHT22;13365;52.208;5.488;2023-02-11T09:54:53;12.30;99.90
25440;DHT22;13365;52.208;5.488;2023-02-11T09:57:20;12.10;99.90
25440;DHT22;13365;52.208;5.488;2023-02-11T09:59:46;12.10;99.90
25440;DHT22;13365;52.208;5.488;2023-02-11T10:02:35;12.50;99.90
25440;DHT22;13365;52.208;5.488;2023-02-11T10:05:16;12.40;99.90
25440;DHT22;13365;52.208;5.488;2023-02-11T10:10:37;12.30;99.90
25440;DHT22;13365;52.208;5.488;2023-02-11T10:16:17;12.40;99.90
25440;DHT22;13365;52.208;5.488;2023-02-11T10:19:12;12.40;99.90
25440;DHT22;13365;52.208;5.488;2023-02-11T10:24:23;12.50;99.90
25440;DHT22;13365;52.208;5.488;2023-02-11T10:26:50;12.60;99.90
25440;DHT22;13365;52.208;5.488;2023-02-11T10:31:57;12.40;99.90
25440;DHT22;13365;52.208;5.488;2023-02-11T10:34:24;12.30;99.90
25440;DHT22;13365;52.208;5.488;2023-02-11T10:36:50;12.30;99.90
25440;DHT22;13365;52.208;5.488;2023-02-11T10:39:21;12.40;99.90
25440;DHT22;13365;52.208;5.488;2023-02-11T10:41:54;12.50;99.90
25440;DHT22;13365;52.208;5.488;2023-02-11T10:44:38;12.60;99.90
25440;DHT22;13365;52.208;5.488;2023-02-11T10:47:22;12.70;99.90
25440;DHT22;13365;52.208;5.488;2023-02-11T10:49:48;12.90;99.90
25440;DHT22;13365;52.208;5.488;2023-02-11T10:55:15;12.80;99.90
25440;DHT22;13365;52.208;5.488;2023-02-11T10:57:49;13.10;99.90
25440;DHT22;13365;52.208;5.488;2023-02-11T11:02:43;12.70;99.90
25440;DHT22;13365;52.208;5.488;2023-02-11T11:05:22;12.80;99.90
25440;DHT22;13365;52.208;5.488;2023-02-11T11:07:57;12.80;99.90
25440;DHT22;13365;52.208;5.488;2023-02-11T11:13:24;13.20;99.90
25440;DHT22;13365;52.208;5.488;2023-02-11T11:18:38;13.00;99.90
25440;DHT22;13365;52.208;5.488;2023-02-11T11:23:50;13.30;99.90
25440;DHT22;13365;52.208;5.488;2023-02-11T11:26:17;13.10;99.90
25440;DHT22;13365;52.208;5.488;2023-02-11T11:31:14;13.30;99.90
25440;DHT22;13365;52.208;5.488;2023-02-11T11:33:42;13.50;99.90
25440;DHT22;13365;52.208;5.488;2023-02-11T11:36:11;13.40;99.90
25440;DHT22;13365;52.208;5.488;2023-02-11T11:38:52;13.60;99.90
25440;DHT22;13365;52.208;5.488;2023-02-11T11:41:32;13.60;99.90
25440;DHT22;13365;52.208;5.488;2023-02-11T11:44:16;13.80;99.90
25440;DHT22;13365;52.208;5.488;2023-02-11T11:46:45;13.70;99.90
25440;DHT22;13365;52.208;5.488;2023-02-11T11:49:24;13.40;99.90
25440;DHT22;13365;52.208;5.488;2023-02-11T11:55:08;13.20;99.90
25440;DHT22;13365;52.208;5.488;2023-02-11T11:57:38;13.40;99.90
25440;DHT22;13365;52.208;5.488;2023-02-11T12:00:04;13.20;99.90
25440;DHT22;13365;52.208;5.488;2023-02-11T12:03:09;13.50;99.90
25440;DHT22;13365;52.208;5.488;2023-02-11T12:08:30;13.70;99.90
25440;DHT22;13365;52.208;5.488;2023-02-11T12:17:05;13.90;99.90
25440;DHT22;13365;52.208;5.488;2023-02-11T12:19:54;13.60;99.90
25440;DHT22;13365;52.208;5.488;2023-02-11T12:25:25;14.20;99.90
25440;DHT22;13365;52.208;5.488;2023-02-11T12:33:35;14.40;99.90
25440;DHT22;13365;52.208;5.488;2023-02-11T12:39:31;14.20;99.90
25440;DHT22;13365;52.208;5.488;2023-02-11T12:47:25;14.40;99.90
25440;DHT22;13365;52.208;5.488;2023-02-11T12:50:22;14.70;99.90
25440;DHT22;13365;52.208;5.488;2023-02-11T12:53:27;14.60;99.50
25440;DHT22;13365;52.208;5.488;2023-02-11T12:56:01;14.80;99.60
25440;DHT22;13365;52.208;5.488;2023-02-11T12:58:32;14.70;99.00
25440;DHT22;13365;52.208;5.488;2023-02-11T13:01:18;14.40;99.50
25440;DHT22;13365;52.208;5.488;2023-02-11T13:06:40;14.50;99.70
25440;DHT22;13365;52.208;5.488;2023-02-11T13:09:30;14.60;99.90
25440;DHT22;13365;52.208;5.488;2023-02-11T13:11:58;14.90;99.00
25440;DHT22;13365;52.208;5.488;2023-02-11T13:14:47;15.30;99.00
25440;DHT22;13365;52.208;5.488;2023-02-11T13:17:21;15.30;98.30
25440;DHT22;13365;52.208;5.488;2023-02-11T13:19:59;15.60;97.30
25440;DHT22;13365;52.208;5.488;2023-02-11T13:22:34;15.60;96.80
25440;DHT22;13365;52.208;5.488;2023-02-11T13:25:27;15.50;97.40
25440;DHT22;13365;52.208;5.488;2023-02-11T13:30:42;15.60;96.90
25440;DHT22;13365;52.208;5.488;2023-02-11T13:33:16;15.80;95.70
25440;DHT22;13365;52.208;5.488;2023-02-11T13:38:31;15.40;96.50
25440;DHT22;13365;52.208;5.488;2023-02-11T13:43:27;14.80;97.20
25440;DHT22;13365;52.208;5.488;2023-02-11T13:46:07;15.10;97.50
25440;DHT22;13365;52.208;5.488;2023-02-11T13:48:37;15.20;97.00
25440;DHT22;13365;52.208;5.488;2023-02-11T13:51:07;15.10;97.20
25440;DHT22;13365;52.208;5.488;2023-02-11T13:53:54;14.90;96.90
25440;DHT22;13365;52.208;5.488;2023-02-11T13:56:34;15.10;97.10
25440;DHT22;13365;52.208;5.488;2023-02-11T14:02:04;15.00;97.70
25440;DHT22;13365;52.208;5.488;2023-02-11T14:05:29;15.40;96.80
25440;DHT22;13365;52.208;5.488;2023-02-11T14:08:21;15.70;96.20
25440;DHT22;13365;52.208;5.488;2023-02-11T14:19:32;15.60;95.90
25440;DHT22;13365;52.208;5.488;2023-02-11T14:24:59;15.30;96.30
25440;DHT22;13365;52.208;5.488;2023-02-11T14:41:25;15.20;96.50
25440;DHT22;13365;52.208;5.488;2023-02-11T14:43:57;15.10;96.80
25440;DHT22;13365;52.208;5.488;2023-02-11T14:46:24;15.00;96.60
25440;DHT22;13365;52.208;5.488;2023-02-11T14:48:53;15.10;96.50
25440;DHT22;13365;52.208;5.488;2023-02-11T14:51:30;15.10;96.60
25440;DHT22;13365;52.208;5.488;2023-02-11T14:54:08;15.00;96.80
25440;DHT22;13365;52.208;5.488;2023-02-11T14:56:38;15.10;97.00
25440;DHT22;13365;52.208;5.488;2023-02-11T14:59:18;15.30;96.80
25440;DHT22;13365;52.208;5.488;2023-02-11T15:01:52;15.30;96.00
25440;DHT22;13365;52.208;5.488;2023-02-11T15:04:29;15.00;96.40
25440;DHT22;13365;52.208;5.488;2023-02-11T15:06:56;15.10;96.30
25440;DHT22;13365;52.208;5.488;2023-02-11T15:09:36;14.80;96.70
25440;DHT22;13365;52.208;5.488;2023-02-11T15:12:02;14.90;96.90
25440;DHT22;13365;52.208;5.488;2023-02-11T15:14:33;14.80;97.20
25440;DHT22;13365;52.208;5.488;2023-02-11T15:17:07;14.70;97.10
25440;DHT22;13365;52.208;5.488;2023-02-11T15:19:44;14.60;96.80
25440;DHT22;13365;52.208;5.488;2023-02-11T15:22:21;14.60;97.30
25440;DHT22;13365;52.208;5.488;2023-02-11T15:27:43;14.60;97.20
25440;DHT22;13365;52.208;5.488;2023-02-11T15:32:51;14.70;96.90
25440;DHT22;13365;52.208;5.488;2023-02-11T15:35:22;14.90;96.90
25440;DHT22;13365;52.208;5.488;2023-02-11T15:37:48;15.20;96.50
25440;DHT22;13365;52.208;5.488;2023-02-11T15:40:19;14.90;96.50
25440;DHT22;13365;52.208;5.488;2023-02-11T15:43:02;14.80;96.50
25440;DHT22;13365;52.208;5.488;2023-02-11T15:45:29;14.60;96.70
25440;DHT22;13365;52.208;5.488;2023-02-11T15:47:59;14.30;97.20
25440;DHT22;13365;52.208;5.488;2023-02-11T15:50:31;14.50;97.20
25440;DHT22;13365;52.208;5.488;2023-02-11T15:53:01;14.70;96.90
25440;DHT22;13365;52.208;5.488;2023-02-11T15:55:28;14.70;96.40
25440;DHT22;13365;52.208;5.488;2023-02-11T15:57:56;14.80;96.20
25440;DHT22;13365;52.208;5.488;2023-02-11T16:00:26;14.70;96.30
25440;DHT22;13365;52.208;5.488;2023-02-11T16:02:54;14.50;96.30
25440;DHT22;13365;52.208;5.488;2023-02-11T16:05:32;14.40;96.70
25440;DHT22;13365;52.208;5.488;2023-02-11T16:08:00;14.60;96.60
25440;DHT22;13365;52.208;5.488;2023-02-11T16:10:31;14.50;96.50
25440;DHT22;13365;52.208;5.488;2023-02-11T16:18:04;14.60;96.50
25440;DHT22;13365;52.208;5.488;2023-02-11T16:20:37;14.50;96.50
25440;DHT22;13365;52.208;5.488;2023-02-11T16:23:03;14.70;96.40
25440;DHT22;13365;52.208;5.488;2023-02-11T16:25:28;14.70;96.40
25440;DHT22;13365;52.208;5.488;2023-02-11T16:27:54;14.90;96.10
25440;DHT22;13365;52.208;5.488;2023-02-11T16:30:35;14.60;96.30
25440;DHT22;13365;52.208;5.488;2023-02-11T16:33:04;14.60;96.70
25440;DHT22;13365;52.208;5.488;2023-02-11T16:35:30;14.40;96.40
25440;DHT22;13365;52.208;5.488;2023-02-11T16:37:56;14.40;96.80
25440;DHT22;13365;52.208;5.488;2023-02-11T16:40:21;14.50;96.90
25440;DHT22;13365;52.208;5.488;2023-02-11T16:42:50;14.50;96.70
25440;DHT22;13365;52.208;5.488;2023-02-11T16:45:17;14.30;96.80
25440;DHT22;13365;52.208;5.488;2023-02-11T16:47:43;14.10;97.10
25440;DHT22;13365;52.208;5.488;2023-02-11T16:50:10;14.30;97.50
25440;DHT22;13365;52.208;5.488;2023-02-11T16:52:43;14.30;96.90
25440;DHT22;13365;52.208;5.488;2023-02-11T16:55:11;14.50;96.60
25440;DHT22;13365;52.208;5.488;2023-02-11T16:57:37;14.30;96.60
25440;DHT22;13365;52.208;5.488;2023-02-11T17:00:04;14.10;97.00
25440;DHT22;13365;52.208;5.488;2023-02-11T17:02:33;14.10;97.40
25440;DHT22;13365;52.208;5.488;2023-02-11T17:05:07;14.00;97.60
25440;DHT22;13365;52.208;5.488;2023-02-11T17:07:39;14.20;97.50
25440;DHT22;13365;52.208;5.488;2023-02-11T17:10:13;14.10;96.90
25440;DHT22;13365;52.208;5.488;2023-02-11T17:12:38;14.10;97.10
25440;DHT22;13365;52.208;5.488;2023-02-11T17:15:04;14.00;97.40
25440;DHT22;13365;52.208;5.488;2023-02-11T17:17:30;14.10;97.20
25440;DHT22;13365;52.208;5.488;2023-02-11T17:19:55;14.30;96.90
25440;DHT22;13365;52.208;5.488;2023-02-11T17:22:21;14.20;97.00
25440;DHT22;13365;52.208;5.488;2023-02-11T17:24:46;14.10;97.10
25440;DHT22;13365;52.208;5.488;2023-02-11T17:27:12;14.10;96.90
25440;DHT22;13365;52.208;5.488;2023-02-11T17:29:38;14.00;97.40
25440;DHT22;13365;52.208;5.488;2023-02-11T17:32:03;14.10;97.40
25440;DHT22;13365;52.208;5.488;2023-02-11T17:34:29;13.80;97.60
25440;DHT22;13365;52.208;5.488;2023-02-11T17:36:54;13.60;97.80
25440;DHT22;13365;52.208;5.488;2023-02-11T17:39:20;13.40;98.10
25440;DHT22;13365;52.208;5.488;2023-02-11T17:41:46;13.50;98.60
25440;DHT22;13365;52.208;5.488;2023-02-11T17:44:11;13.40;98.70
25440;DHT22;13365;52.208;5.488;2023-02-11T17:46:38;13.50;98.40
25440;DHT22;13365;52.208;5.488;2023-02-11T17:49:04;13.40;98.40
25440;DHT22;13365;52.208;5.488;2023-02-11T17:51:32;13.50;98.20
25440;DHT22;13365;52.208;5.488;2023-02-11T17:54:00;13.10;98.60
25440;DHT22;13365;52.208;5.488;2023-02-11T17:56:27;13.40;98.90
25440;DHT22;13365;52.208;5.488;2023-02-11T17:58:54;13.10;98.90
25440;DHT22;13365;52.208;5.488;2023-02-11T18:01:19;12.90;99.80
25440;DHT22;13365;52.208;5.488;2023-02-11T18:03:45;13.10;99.20
25440;DHT22;13365;52.208;5.488;2023-02-11T18:06:11;12.90;98.90
25440;DHT22;13365;52.208;5.488;2023-02-11T18:08:36;13.00;99.70
25440;DHT22;13365;52.208;5.488;2023-02-11T18:11:03;13.10;99.60
25440;DHT22;13365;52.208;5.488;2023-02-11T18:13:28;13.40;99.00
25440;DHT22;13365;52.208;5.488;2023-02-11T18:15:54;13.40;98.70